Christchurch International Airport
NZCH : rendu visible

Aérodrome :











RETROUVEZ-NOUS SUR...

 
LOGIN :

S'inscrire | Disclaimer

   EN    FR    IT 

 









Légende :    VFR   VFR Marginal   IFR   IFR Intensif   IFR Très Intensif
Visi : 
Plafond : 
>= 8 km
>= 3000ft
5 à 8 km
1000 à 3000 ft
1500m à 5 km
500 à 1000 ft
800 à 1500m
200 à 500 ft
< 800m
< 200 ft
Symboles :   Orages  Brouillard  Fortes neiges  Fortes précipitations  Vent > 20 kt






- Altitude de l'aérodrome : 123 ft
- Code IATA : CHC


NZCH - Christchurch International

DERNIER METAR :
  • 280930Z AUTO 10007KT 9999 FEW085/// SCT100/// 13/10 Q1001 NOSIG

METARs EXPIRÉS :
  • 280900Z AUTO 11003KT 9999 SCT090/// 13/10 Q1001 NOSIG
  • 280830Z AUTO 10012KT 9999 NCD 13/10 Q1000 BECMG TL1000 36008KT
  • 280800Z AUTO 09009KT 9999 -RA SCT090/// 13/09 Q1001 NOSIG
  • 280730Z AUTO 10013KT 070V130 9999 -DZ BKN095/// 13/09 Q1001 BECMG FM0800 36008KT
  • 280700Z AUTO 08012KT 9999 NCD 12/09 Q1001 BECMG FM0800 36008KT

TAF TAF NZCH
Valide du 28 à 06h jusqu'au 29 à 06h UTC


280508Z 2806/2906 06020KT 9999 NSC
BECMG 2808/2810 36008KT
PROB30
TEMPO 2808/2811 8000 RA
BECMG 2812/2814 06010KT
BECMG 2818/2820 21012KT
FIR NZZC / Océanie



MET'MAP, la Météo Aéronautique d'un coup d'oeil ! - Copyright ORBIFLY Décembre 2007 - Disclaimer

ORBIFLY MET'MAP TEAM :

Programmation & Développement : Alexandra Zaïnal
Sur une idée originale de : Baudouin d'Aumeries
Assistance à la programmation : Marc-Olivier Méhu
Soutien technique & logistique : Manuel Goepfert

Contact : metmap@orbifly.com




SOURCES & CREDITS :

   NOAA       Earth
Advisory